sensor_id;sensor_type;location;lat;lon;timestamp;P1;durP1;ratioP1;P2;durP2;ratioP2
48524;SDS011;34316;51.514;-0.178;2023-02-15T00:01:10;39.33;;;25.55;;
48524;SDS011;34316;51.514;-0.178;2023-02-15T00:03:12;40.17;;;26.00;;
48524;SDS011;34316;51.514;-0.178;2023-02-15T00:05:17;47.97;;;26.27;;
48524;SDS011;34316;51.514;-0.178;2023-02-15T00:07:19;40.72;;;24.90;;
48524;SDS011;34316;51.514;-0.178;2023-02-15T00:09:20;40.97;;;25.08;;
48524;SDS011;34316;51.514;-0.178;2023-02-15T00:11:23;41.58;;;25.85;;
48524;SDS011;34316;51.514;-0.178;2023-02-15T00:13:51;41.47;;;24.85;;
48524;SDS011;34316;51.514;-0.178;2023-02-15T00:15:53;39.03;;;24.45;;
48524;SDS011;34316;51.514;-0.178;2023-02-15T00:17:54;43.65;;;25.80;;
48524;SDS011;34316;51.514;-0.178;2023-02-15T00:19:57;40.78;;;24.25;;
48524;SDS011;34316;51.514;-0.178;2023-02-15T00:21:59;39.30;;;24.13;;
48524;SDS011;34316;51.514;-0.178;2023-02-15T00:24:02;42.25;;;25.58;;
48524;SDS011;34316;51.514;-0.178;2023-02-15T00:26:05;39.30;;;24.13;;
48524;SDS011;34316;51.514;-0.178;2023-02-15T00:28:10;41.25;;;25.55;;
48524;SDS011;34316;51.514;-0.178;2023-02-15T00:30:12;39.97;;;23.50;;
48524;SDS011;34316;51.514;-0.178;2023-02-15T00:32:14;38.42;;;25.63;;
48524;SDS011;34316;51.514;-0.178;2023-02-15T00:34:17;39.38;;;24.25;;
48524;SDS011;34316;51.514;-0.178;2023-02-15T00:38:21;38.60;;;24.08;;
48524;SDS011;34316;51.514;-0.178;2023-02-15T00:40:23;38.25;;;23.48;;
48524;SDS011;34316;51.514;-0.178;2023-02-15T00:42:25;38.10;;;23.02;;
48524;SDS011;34316;51.514;-0.178;2023-02-15T00:44:26;38.83;;;23.83;;
48524;SDS011;34316;51.514;-0.178;2023-02-15T00:46:28;38.15;;;23.48;;
48524;SDS011;34316;51.514;-0.178;2023-02-15T00:48:29;36.95;;;23.55;;
48524;SDS011;34316;51.514;-0.178;2023-02-15T00:50:31;40.03;;;23.98;;
48524;SDS011;34316;51.514;-0.178;2023-02-15T00:52:33;36.20;;;22.30;;
48524;SDS011;34316;51.514;-0.178;2023-02-15T00:54:34;37.63;;;24.13;;
48524;SDS011;34316;51.514;-0.178;2023-02-15T00:56:36;37.20;;;23.52;;
48524;SDS011;34316;51.514;-0.178;2023-02-15T00:58:38;38.20;;;24.73;;
48524;SDS011;34316;51.514;-0.178;2023-02-15T01:00:40;39.17;;;23.88;;
48524;SDS011;34316;51.514;-0.178;2023-02-15T01:02:42;39.20;;;24.08;;
48524;SDS011;34316;51.514;-0.178;2023-02-15T01:04:44;37.55;;;23.95;;
48524;SDS011;34316;51.514;-0.178;2023-02-15T01:06:45;37.05;;;24.13;;
48524;SDS011;34316;51.514;-0.178;2023-02-15T01:08:47;40.15;;;24.17;;
48524;SDS011;34316;51.514;-0.178;2023-02-15T01:10:49;38.08;;;23.15;;
48524;SDS011;34316;51.514;-0.178;2023-02-15T01:12:51;37.70;;;23.85;;
48524;SDS011;34316;51.514;-0.178;2023-02-15T01:14:54;39.38;;;23.42;;
48524;SDS011;34316;51.514;-0.178;2023-02-15T01:16:55;37.90;;;24.13;;
48524;SDS011;34316;51.514;-0.178;2023-02-15T01:18:57;38.85;;;23.92;;
48524;SDS011;34316;51.514;-0.178;2023-02-15T01:20:59;39.30;;;24.02;;
48524;SDS011;34316;51.514;-0.178;2023-02-15T01:23:01;33.33;;;21.73;;
48524;SDS011;34316;51.514;-0.178;2023-02-15T01:25:03;36.80;;;24.70;;
48524;SDS011;34316;51.514;-0.178;2023-02-15T01:27:05;36.17;;;23.20;;
48524;SDS011;34316;51.514;-0.178;2023-02-15T01:29:07;37.17;;;23.45;;
48524;SDS011;34316;51.514;-0.178;2023-02-15T01:31:09;38.60;;;23.80;;
48524;SDS011;34316;51.514;-0.178;2023-02-15T01:33:14;38.20;;;24.25;;
48524;SDS011;34316;51.514;-0.178;2023-02-15T01:35:19;37.60;;;23.00;;
48524;SDS011;34316;51.514;-0.178;2023-02-15T01:37:20;35.67;;;23.23;;
48524;SDS011;34316;51.514;-0.178;2023-02-15T01:39:22;37.70;;;22.67;;
48524;SDS011;34316;51.514;-0.178;2023-02-15T01:41:24;37.22;;;23.02;;
48524;SDS011;34316;51.514;-0.178;2023-02-15T01:43:40;38.08;;;23.05;;
48524;SDS011;34316;51.514;-0.178;2023-02-15T01:45:42;34.67;;;22.77;;
48524;SDS011;34316;51.514;-0.178;2023-02-15T01:47:49;35.88;;;23.08;;
48524;SDS011;34316;51.514;-0.178;2023-02-15T01:50:23;36.53;;;22.70;;
48524;SDS011;34316;51.514;-0.178;2023-02-15T01:52:36;35.83;;;23.17;;
48524;SDS011;34316;51.514;-0.178;2023-02-15T01:54:39;36.75;;;22.05;;
48524;SDS011;34316;51.514;-0.178;2023-02-15T01:56:42;35.70;;;21.92;;
48524;SDS011;34316;51.514;-0.178;2023-02-15T01:58:44;36.15;;;23.08;;
48524;SDS011;34316;51.514;-0.178;2023-02-15T02:00:46;38.90;;;23.63;;
48524;SDS011;34316;51.514;-0.178;2023-02-15T02:02:49;37.03;;;22.48;;
48524;SDS011;34316;51.514;-0.178;2023-02-15T02:05:00;35.83;;;24.63;;
48524;SDS011;34316;51.514;-0.178;2023-02-15T02:07:08;41.47;;;23.58;;
48524;SDS011;34316;51.514;-0.178;2023-02-15T02:09:11;38.58;;;25.00;;
48524;SDS011;34316;51.514;-0.178;2023-02-15T02:11:14;38.33;;;22.48;;
48524;SDS011;34316;51.514;-0.178;2023-02-15T02:13:15;38.30;;;23.48;;
48524;SDS011;34316;51.514;-0.178;2023-02-15T02:15:17;41.45;;;23.70;;
48524;SDS011;34316;51.514;-0.178;2023-02-15T02:31:43;35.95;;;23.17;;
48524;SDS011;34316;51.514;-0.178;2023-02-15T02:38:28;35.92;;;23.90;;
48524;SDS011;34316;51.514;-0.178;2023-02-15T02:42:49;37.72;;;21.67;;
48524;SDS011;34316;51.514;-0.178;2023-02-15T02:45:01;34.88;;;22.02;;
48524;SDS011;34316;51.514;-0.178;2023-02-15T02:49:31;32.22;;;21.35;;
48524;SDS011;34316;51.514;-0.178;2023-02-15T02:51:33;32.35;;;21.27;;
48524;SDS011;34316;51.514;-0.178;2023-02-15T02:53:35;33.53;;;21.33;;
48524;SDS011;34316;51.514;-0.178;2023-02-15T02:57:44;33.50;;;21.80;;
48524;SDS011;34316;51.514;-0.178;2023-02-15T02:59:54;35.10;;;21.08;;
48524;SDS011;34316;51.514;-0.178;2023-02-15T03:04:20;35.83;;;21.75;;
48524;SDS011;34316;51.514;-0.178;2023-02-15T03:06:26;34.78;;;21.50;;
48524;SDS011;34316;51.514;-0.178;2023-02-15T03:08:36;32.72;;;21.15;;
48524;SDS011;34316;51.514;-0.178;2023-02-15T03:10:59;32.90;;;20.43;;
48524;SDS011;34316;51.514;-0.178;2023-02-15T03:13:02;35.47;;;22.52;;
48524;SDS011;34316;51.514;-0.178;2023-02-15T03:15:14;36.00;;;21.50;;
48524;SDS011;34316;51.514;-0.178;2023-02-15T03:17:18;33.90;;;21.38;;
48524;SDS011;34316;51.514;-0.178;2023-02-15T03:21:42;29.95;;;20.55;;
48524;SDS011;34316;51.514;-0.178;2023-02-15T03:23:54;33.88;;;20.55;;
48524;SDS011;34316;51.514;-0.178;2023-02-15T03:26:02;34.58;;;21.35;;
48524;SDS011;34316;51.514;-0.178;2023-02-15T03:30:13;33.08;;;20.02;;
48524;SDS011;34316;51.514;-0.178;2023-02-15T03:32:16;34.30;;;19.65;;
48524;SDS011;34316;51.514;-0.178;2023-02-15T03:34:18;34.38;;;20.48;;
48524;SDS011;34316;51.514;-0.178;2023-02-15T03:36:43;30.15;;;20.38;;
48524;SDS011;34316;51.514;-0.178;2023-02-15T03:38:59;35.10;;;21.02;;
48524;SDS011;34316;51.514;-0.178;2023-02-15T03:41:16;29.58;;;19.80;;
48524;SDS011;34316;51.514;-0.178;2023-02-15T03:45:39;30.77;;;19.65;;
48524;SDS011;34316;51.514;-0.178;2023-02-15T03:47:55;33.97;;;21.25;;
48524;SDS011;34316;51.514;-0.178;2023-02-15T03:50:05;31.55;;;20.42;;
48524;SDS011;34316;51.514;-0.178;2023-02-15T03:52:30;31.58;;;19.83;;
48524;SDS011;34316;51.514;-0.178;2023-02-15T03:54:33;34.55;;;20.63;;
48524;SDS011;34316;51.514;-0.178;2023-02-15T03:56:48;30.85;;;19.10;;
48524;SDS011;34316;51.514;-0.178;2023-02-15T03:59:10;30.42;;;19.83;;
48524;SDS011;34316;51.514;-0.178;2023-02-15T04:01:35;31.98;;;19.88;;
48524;SDS011;34316;51.514;-0.178;2023-02-15T04:03:59;34.05;;;20.90;;
48524;SDS011;34316;51.514;-0.178;2023-02-15T04:06:04;29.30;;;19.48;;
48524;SDS011;34316;51.514;-0.178;2023-02-15T04:08:06;30.33;;;18.88;;
48524;SDS011;34316;51.514;-0.178;2023-02-15T04:10:08;31.48;;;19.80;;
48524;SDS011;34316;51.514;-0.178;2023-02-15T04:12:30;32.15;;;19.90;;
48524;SDS011;34316;51.514;-0.178;2023-02-15T04:14:32;32.93;;;19.30;;
48524;SDS011;34316;51.514;-0.178;2023-02-15T04:16:52;31.65;;;18.85;;
48524;SDS011;34316;51.514;-0.178;2023-02-15T04:18:54;33.10;;;20.73;;
48524;SDS011;34316;51.514;-0.178;2023-02-15T04:21:14;30.05;;;19.45;;
48524;SDS011;34316;51.514;-0.178;2023-02-15T04:23:34;32.92;;;20.33;;
48524;SDS011;34316;51.514;-0.178;2023-02-15T04:25:54;33.22;;;20.40;;
48524;SDS011;34316;51.514;-0.178;2023-02-15T04:27:56;34.00;;;20.70;;
48524;SDS011;34316;51.514;-0.178;2023-02-15T04:29:58;31.25;;;20.38;;
48524;SDS011;34316;51.514;-0.178;2023-02-15T04:32:00;33.08;;;20.85;;
48524;SDS011;34316;51.514;-0.178;2023-02-15T04:34:02;33.60;;;20.77;;
48524;SDS011;34316;51.514;-0.178;2023-02-15T04:36:04;33.70;;;21.17;;
48524;SDS011;34316;51.514;-0.178;2023-02-15T04:38:06;32.80;;;20.95;;
48524;SDS011;34316;51.514;-0.178;2023-02-15T04:40:09;34.38;;;21.35;;
48524;SDS011;34316;51.514;-0.178;2023-02-15T04:42:13;32.30;;;20.85;;
48524;SDS011;34316;51.514;-0.178;2023-02-15T04:44:15;38.47;;;20.38;;
48524;SDS011;34316;51.514;-0.178;2023-02-15T04:46:16;32.13;;;20.63;;
48524;SDS011;34316;51.514;-0.178;2023-02-15T04:48:18;34.72;;;21.58;;
48524;SDS011;34316;51.514;-0.178;2023-02-15T04:50:20;32.05;;;20.00;;
48524;SDS011;34316;51.514;-0.178;2023-02-15T04:52:22;32.70;;;19.92;;
48524;SDS011;34316;51.514;-0.178;2023-02-15T04:54:23;33.53;;;22.02;;
48524;SDS011;34316;51.514;-0.178;2023-02-15T04:56:25;35.38;;;21.83;;
48524;SDS011;34316;51.514;-0.178;2023-02-15T04:58:27;34.17;;;20.38;;
48524;SDS011;34316;51.514;-0.178;2023-02-15T05:00:29;34.63;;;20.35;;
48524;SDS011;34316;51.514;-0.178;2023-02-15T05:02:30;32.20;;;20.30;;
48524;SDS011;34316;51.514;-0.178;2023-02-15T05:04:32;32.72;;;21.10;;
48524;SDS011;34316;51.514;-0.178;2023-02-15T05:06:34;33.03;;;20.67;;
48524;SDS011;34316;51.514;-0.178;2023-02-15T05:08:36;34.88;;;20.20;;
48524;SDS011;34316;51.514;-0.178;2023-02-15T05:10:37;34.83;;;21.20;;
48524;SDS011;34316;51.514;-0.178;2023-02-15T05:12:39;32.28;;;20.30;;
48524;SDS011;34316;51.514;-0.178;2023-02-15T05:14:41;30.98;;;20.75;;
48524;SDS011;34316;51.514;-0.178;2023-02-15T05:16:42;34.70;;;21.25;;
48524;SDS011;34316;51.514;-0.178;2023-02-15T05:18:44;32.63;;;19.35;;
48524;SDS011;34316;51.514;-0.178;2023-02-15T05:20:46;35.30;;;21.70;;
48524;SDS011;34316;51.514;-0.178;2023-02-15T05:22:48;31.33;;;19.42;;
48524;SDS011;34316;51.514;-0.178;2023-02-15T05:24:50;35.00;;;20.58;;
48524;SDS011;34316;51.514;-0.178;2023-02-15T05:27:10;34.70;;;20.83;;
48524;SDS011;34316;51.514;-0.178;2023-02-15T05:29:31;37.28;;;20.83;;
48524;SDS011;34316;51.514;-0.178;2023-02-15T05:31:32;31.80;;;20.63;;
48524;SDS011;34316;51.514;-0.178;2023-02-15T05:33:35;39.58;;;21.02;;
48524;SDS011;34316;51.514;-0.178;2023-02-15T05:35:37;30.38;;;20.10;;
48524;SDS011;34316;51.514;-0.178;2023-02-15T05:37:39;32.25;;;20.60;;
48524;SDS011;34316;51.514;-0.178;2023-02-15T05:39:40;30.90;;;19.45;;
48524;SDS011;34316;51.514;-0.178;2023-02-15T05:41:42;31.88;;;20.35;;
48524;SDS011;34316;51.514;-0.178;2023-02-15T05:43:45;31.83;;;20.42;;
48524;SDS011;34316;51.514;-0.178;2023-02-15T05:45:47;33.00;;;21.02;;
48524;SDS011;34316;51.514;-0.178;2023-02-15T05:47:52;31.45;;;20.23;;
48524;SDS011;34316;51.514;-0.178;2023-02-15T05:49:54;30.17;;;19.13;;
48524;SDS011;34316;51.514;-0.178;2023-02-15T05:51:56;30.95;;;19.95;;
48524;SDS011;34316;51.514;-0.178;2023-02-15T05:53:58;31.95;;;20.70;;
48524;SDS011;34316;51.514;-0.178;2023-02-15T05:56:00;32.83;;;20.65;;
48524;SDS011;34316;51.514;-0.178;2023-02-15T05:58:03;32.70;;;20.50;;
48524;SDS011;34316;51.514;-0.178;2023-02-15T06:00:06;29.60;;;19.70;;
48524;SDS011;34316;51.514;-0.178;2023-02-15T06:02:08;33.60;;;20.17;;
48524;SDS011;34316;51.514;-0.178;2023-02-15T06:04:10;31.55;;;20.17;;
48524;SDS011;34316;51.514;-0.178;2023-02-15T06:06:11;33.03;;;19.73;;
48524;SDS011;34316;51.514;-0.178;2023-02-15T06:08:13;29.80;;;20.17;;
48524;SDS011;34316;51.514;-0.178;2023-02-15T06:10:15;31.67;;;19.27;;
48524;SDS011;34316;51.514;-0.178;2023-02-15T06:12:17;33.70;;;19.85;;
48524;SDS011;34316;51.514;-0.178;2023-02-15T06:14:18;34.42;;;19.25;;
48524;SDS011;34316;51.514;-0.178;2023-02-15T06:16:20;34.17;;;20.23;;
48524;SDS011;34316;51.514;-0.178;2023-02-15T06:18:22;31.73;;;20.20;;
48524;SDS011;34316;51.514;-0.178;2023-02-15T06:20:24;34.10;;;21.25;;
48524;SDS011;34316;51.514;-0.178;2023-02-15T06:22:26;31.98;;;18.75;;
48524;SDS011;34316;51.514;-0.178;2023-02-15T06:24:28;30.67;;;19.70;;
48524;SDS011;34316;51.514;-0.178;2023-02-15T06:26:29;31.50;;;19.30;;
48524;SDS011;34316;51.514;-0.178;2023-02-15T06:28:31;31.65;;;20.10;;
48524;SDS011;34316;51.514;-0.178;2023-02-15T06:30:33;28.55;;;18.20;;
48524;SDS011;34316;51.514;-0.178;2023-02-15T06:32:35;27.85;;;18.50;;
48524;SDS011;34316;51.514;-0.178;2023-02-15T06:34:37;31.58;;;19.08;;
48524;SDS011;34316;51.514;-0.178;2023-02-15T06:36:38;30.05;;;18.50;;
48524;SDS011;34316;51.514;-0.178;2023-02-15T06:38:40;29.70;;;18.67;;
48524;SDS011;34316;51.514;-0.178;2023-02-15T06:40:42;31.35;;;19.27;;
48524;SDS011;34316;51.514;-0.178;2023-02-15T06:42:44;29.42;;;19.40;;
48524;SDS011;34316;51.514;-0.178;2023-02-15T06:44:46;32.28;;;19.65;;
48524;SDS011;34316;51.514;-0.178;2023-02-15T06:46:47;27.17;;;18.88;;
48524;SDS011;34316;51.514;-0.178;2023-02-15T06:48:49;28.27;;;17.60;;
48524;SDS011;34316;51.514;-0.178;2023-02-15T06:50:51;27.33;;;17.80;;
48524;SDS011;34316;51.514;-0.178;2023-02-15T06:52:59;25.90;;;16.77;;
48524;SDS011;34316;51.514;-0.178;2023-02-15T06:55:00;28.88;;;18.42;;
48524;SDS011;34316;51.514;-0.178;2023-02-15T06:57:02;28.80;;;18.17;;
48524;SDS011;34316;51.514;-0.178;2023-02-15T06:59:04;30.90;;;18.30;;
48524;SDS011;34316;51.514;-0.178;2023-02-15T07:01:06;32.75;;;19.40;;
48524;SDS011;34316;51.514;-0.178;2023-02-15T07:03:08;31.00;;;18.30;;
48524;SDS011;34316;51.514;-0.178;2023-02-15T07:05:10;31.52;;;18.70;;
48524;SDS011;34316;51.514;-0.178;2023-02-15T07:07:12;32.10;;;18.52;;
48524;SDS011;34316;51.514;-0.178;2023-02-15T07:09:13;29.75;;;16.98;;
48524;SDS011;34316;51.514;-0.178;2023-02-15T07:11:15;28.73;;;17.60;;
48524;SDS011;34316;51.514;-0.178;2023-02-15T07:13:35;28.85;;;18.58;;
48524;SDS011;34316;51.514;-0.178;2023-02-15T07:15:37;28.75;;;17.52;;
48524;SDS011;34316;51.514;-0.178;2023-02-15T07:17:39;24.88;;;16.02;;
48524;SDS011;34316;51.514;-0.178;2023-02-15T07:19:41;29.33;;;18.42;;
48524;SDS011;34316;51.514;-0.178;2023-02-15T07:21:43;28.70;;;17.95;;
48524;SDS011;34316;51.514;-0.178;2023-02-15T07:23:46;25.27;;;16.98;;
48524;SDS011;34316;51.514;-0.178;2023-02-15T07:25:48;29.17;;;17.38;;
48524;SDS011;34316;51.514;-0.178;2023-02-15T07:27:58;31.23;;;18.48;;
48524;SDS011;34316;51.514;-0.178;2023-02-15T07:30:04;33.85;;;18.77;;
48524;SDS011;34316;51.514;-0.178;2023-02-15T07:32:08;30.20;;;18.13;;
48524;SDS011;34316;51.514;-0.178;2023-02-15T07:34:10;27.95;;;16.98;;
48524;SDS011;34316;51.514;-0.178;2023-02-15T07:36:12;26.27;;;16.17;;
48524;SDS011;34316;51.514;-0.178;2023-02-15T07:38:14;27.00;;;17.80;;
48524;SDS011;34316;51.514;-0.178;2023-02-15T07:40:16;40.13;;;19.88;;
48524;SDS011;34316;51.514;-0.178;2023-02-15T07:42:17;29.30;;;17.92;;
48524;SDS011;34316;51.514;-0.178;2023-02-15T07:44:20;36.67;;;19.17;;
48524;SDS011;34316;51.514;-0.178;2023-02-15T07:46:22;25.38;;;15.88;;
48524;SDS011;34316;51.514;-0.178;2023-02-15T07:48:24;23.88;;;16.38;;
48524;SDS011;34316;51.514;-0.178;2023-02-15T07:50:25;26.15;;;16.45;;
48524;SDS011;34316;51.514;-0.178;2023-02-15T07:52:27;26.45;;;16.15;;
48524;SDS011;34316;51.514;-0.178;2023-02-15T07:54:29;32.10;;;16.88;;
48524;SDS011;34316;51.514;-0.178;2023-02-15T07:56:31;25.33;;;16.05;;
48524;SDS011;34316;51.514;-0.178;2023-02-15T07:58:35;30.50;;;17.63;;
48524;SDS011;34316;51.514;-0.178;2023-02-15T08:00:54;32.78;;;16.65;;
48524;SDS011;34316;51.514;-0.178;2023-02-15T08:03:02;28.10;;;15.48;;
48524;SDS011;34316;51.514;-0.178;2023-02-15T08:07:19;25.70;;;16.40;;
48524;SDS011;34316;51.514;-0.178;2023-02-15T08:09:21;27.27;;;16.42;;
48524;SDS011;34316;51.514;-0.178;2023-02-15T08:11:24;24.95;;;15.52;;
48524;SDS011;34316;51.514;-0.178;2023-02-15T08:13:26;20.40;;;13.43;;
48524;SDS011;34316;51.514;-0.178;2023-02-15T08:15:28;26.10;;;14.98;;
48524;SDS011;34316;51.514;-0.178;2023-02-15T08:17:30;26.10;;;15.18;;
48524;SDS011;34316;51.514;-0.178;2023-02-15T08:19:32;25.88;;;15.25;;
48524;SDS011;34316;51.514;-0.178;2023-02-15T08:21:35;24.27;;;15.18;;
48524;SDS011;34316;51.514;-0.178;2023-02-15T08:23:38;27.98;;;16.08;;
48524;SDS011;34316;51.514;-0.178;2023-02-15T08:25:39;28.17;;;16.13;;
48524;SDS011;34316;51.514;-0.178;2023-02-15T08:27:41;24.75;;;16.08;;
48524;SDS011;34316;51.514;-0.178;2023-02-15T08:29:43;24.25;;;15.07;;
48524;SDS011;34316;51.514;-0.178;2023-02-15T08:31:45;24.13;;;14.80;;
48524;SDS011;34316;51.514;-0.178;2023-02-15T08:33:48;31.92;;;18.27;;
48524;SDS011;34316;51.514;-0.178;2023-02-15T08:35:50;28.00;;;17.45;;
48524;SDS011;34316;51.514;-0.178;2023-02-15T08:37:51;25.48;;;15.30;;
48524;SDS011;34316;51.514;-0.178;2023-02-15T08:39:53;22.02;;;14.20;;
48524;SDS011;34316;51.514;-0.178;2023-02-15T08:41:55;26.83;;;16.52;;
48524;SDS011;34316;51.514;-0.178;2023-02-15T08:43:58;25.75;;;16.05;;
48524;SDS011;34316;51.514;-0.178;2023-02-15T08:46:01;31.63;;;18.05;;
48524;SDS011;34316;51.514;-0.178;2023-02-15T08:48:03;31.60;;;17.60;;
48524;SDS011;34316;51.514;-0.178;2023-02-15T08:50:05;27.52;;;16.27;;
48524;SDS011;34316;51.514;-0.178;2023-02-15T08:52:06;26.38;;;14.98;;
48524;SDS011;34316;51.514;-0.178;2023-02-15T08:54:09;26.45;;;16.02;;
48524;SDS011;34316;51.514;-0.178;2023-02-15T08:56:13;27.95;;;15.45;;
48524;SDS011;34316;51.514;-0.178;2023-02-15T08:58:15;25.70;;;15.20;;
48524;SDS011;34316;51.514;-0.178;2023-02-15T09:00:16;24.77;;;15.02;;
48524;SDS011;34316;51.514;-0.178;2023-02-15T09:02:19;22.15;;;15.07;;
48524;SDS011;34316;51.514;-0.178;2023-02-15T09:04:20;25.33;;;16.38;;
48524;SDS011;34316;51.514;-0.178;2023-02-15T09:06:24;25.80;;;16.00;;
48524;SDS011;34316;51.514;-0.178;2023-02-15T09:08:27;24.63;;;15.85;;
48524;SDS011;34316;51.514;-0.178;2023-02-15T09:10:29;27.67;;;16.88;;
48524;SDS011;34316;51.514;-0.178;2023-02-15T09:12:30;31.85;;;18.23;;
48524;SDS011;34316;51.514;-0.178;2023-02-15T09:14:32;24.52;;;15.90;;
48524;SDS011;34316;51.514;-0.178;2023-02-15T09:16:35;27.05;;;15.13;;
48524;SDS011;34316;51.514;-0.178;2023-02-15T09:18:38;27.05;;;16.63;;
48524;SDS011;34316;51.514;-0.178;2023-02-15T09:20:40;27.33;;;15.90;;
48524;SDS011;34316;51.514;-0.178;2023-02-15T09:22:42;25.23;;;16.38;;
48524;SDS011;34316;51.514;-0.178;2023-02-15T09:24:44;25.13;;;15.93;;
48524;SDS011;34316;51.514;-0.178;2023-02-15T09:26:46;28.02;;;16.13;;
48524;SDS011;34316;51.514;-0.178;2023-02-15T09:28:51;28.67;;;17.73;;
48524;SDS011;34316;51.514;-0.178;2023-02-15T09:30:54;29.10;;;15.35;;
48524;SDS011;34316;51.514;-0.178;2023-02-15T09:32:56;30.38;;;15.88;;
48524;SDS011;34316;51.514;-0.178;2023-02-15T09:34:58;24.65;;;16.15;;
48524;SDS011;34316;51.514;-0.178;2023-02-15T09:37:00;24.90;;;15.25;;
48524;SDS011;34316;51.514;-0.178;2023-02-15T09:43:36;32.25;;;18.05;;
48524;SDS011;34316;51.514;-0.178;2023-02-15T09:46:18;26.02;;;15.88;;
48524;SDS011;34316;51.514;-0.178;2023-02-15T09:57:33;26.30;;;17.00;;
48524;SDS011;34316;51.514;-0.178;2023-02-15T10:02:12;27.88;;;16.92;;
48524;SDS011;34316;51.514;-0.178;2023-02-15T10:06:35;27.83;;;16.83;;
48524;SDS011;34316;51.514;-0.178;2023-02-15T10:08:56;25.60;;;16.35;;
48524;SDS011;34316;51.514;-0.178;2023-02-15T10:11:16;29.85;;;17.98;;
48524;SDS011;34316;51.514;-0.178;2023-02-15T10:13:44;31.23;;;19.23;;
48524;SDS011;34316;51.514;-0.178;2023-02-15T10:18:14;30.35;;;18.65;;
48524;SDS011;34316;51.514;-0.178;2023-02-15T10:20:28;32.40;;;18.27;;
48524;SDS011;34316;51.514;-0.178;2023-02-15T10:27:15;28.92;;;17.23;;
48524;SDS011;34316;51.514;-0.178;2023-02-15T10:34:38;27.17;;;18.23;;
48524;SDS011;34316;51.514;-0.178;2023-02-15T10:43:38;36.30;;;21.27;;
48524;SDS011;34316;51.514;-0.178;2023-02-15T10:48:38;29.52;;;18.60;;
48524;SDS011;34316;51.514;-0.178;2023-02-15T10:50:58;27.00;;;17.50;;
48524;SDS011;34316;51.514;-0.178;2023-02-15T10:55:14;25.27;;;15.25;;
48524;SDS011;34316;51.514;-0.178;2023-02-15T11:01:52;26.70;;;17.00;;
48524;SDS011;34316;51.514;-0.178;2023-02-15T11:06:18;27.90;;;17.88;;
48524;SDS011;34316;51.514;-0.178;2023-02-15T11:08:21;28.08;;;17.10;;
48524;SDS011;34316;51.514;-0.178;2023-02-15T11:12:40;29.92;;;18.65;;
48524;SDS011;34316;51.514;-0.178;2023-02-15T11:14:45;28.55;;;18.45;;
48524;SDS011;34316;51.514;-0.178;2023-02-15T11:16:50;27.50;;;17.58;;
48524;SDS011;34316;51.514;-0.178;2023-02-15T11:18:56;27.17;;;18.15;;
48524;SDS011;34316;51.514;-0.178;2023-02-15T11:23:23;26.77;;;17.15;;
48524;SDS011;34316;51.514;-0.178;2023-02-15T11:25:33;27.90;;;18.08;;
48524;SDS011;34316;51.514;-0.178;2023-02-15T11:27:36;26.10;;;16.83;;
48524;SDS011;34316;51.514;-0.178;2023-02-15T11:31:55;25.65;;;17.67;;
48524;SDS011;34316;51.514;-0.178;2023-02-15T11:34:00;23.75;;;16.25;;
48524;SDS011;34316;51.514;-0.178;2023-02-15T11:36:12;24.20;;;17.38;;
48524;SDS011;34316;51.514;-0.178;2023-02-15T11:38:22;25.17;;;16.48;;
48524;SDS011;34316;51.514;-0.178;2023-02-15T11:42:31;27.80;;;16.95;;
48524;SDS011;34316;51.514;-0.178;2023-02-15T11:44:34;26.45;;;17.15;;
48524;SDS011;34316;51.514;-0.178;2023-02-15T11:46:38;27.58;;;17.48;;
48524;SDS011;34316;51.514;-0.178;2023-02-15T11:48:40;27.48;;;16.65;;
48524;SDS011;34316;51.514;-0.178;2023-02-15T11:50:43;24.15;;;15.75;;
48524;SDS011;34316;51.514;-0.178;2023-02-15T11:52:45;27.38;;;18.83;;
48524;SDS011;34316;51.514;-0.178;2023-02-15T11:54:48;26.58;;;16.30;;
48524;SDS011;34316;51.514;-0.178;2023-02-15T11:56:51;25.65;;;16.52;;
48524;SDS011;34316;51.514;-0.178;2023-02-15T11:59:01;28.25;;;17.88;;
48524;SDS011;34316;51.514;-0.178;2023-02-15T12:01:20;28.08;;;17.80;;
48524;SDS011;34316;51.514;-0.178;2023-02-15T12:05:42;29.85;;;18.95;;
48524;SDS011;34316;51.514;-0.178;2023-02-15T12:07:46;34.67;;;23.17;;
48524;SDS011;34316;51.514;-0.178;2023-02-15T12:10:15;33.72;;;22.15;;
48524;SDS011;34316;51.514;-0.178;2023-02-15T12:14:46;27.58;;;17.35;;
48524;SDS011;34316;51.514;-0.178;2023-02-15T12:16:50;38.97;;;19.10;;
48524;SDS011;34316;51.514;-0.178;2023-02-15T12:18:53;28.52;;;18.95;;
48524;SDS011;34316;51.514;-0.178;2023-02-15T12:21:00;30.15;;;18.00;;
48524;SDS011;34316;51.514;-0.178;2023-02-15T12:23:15;27.13;;;17.73;;
48524;SDS011;34316;51.514;-0.178;2023-02-15T12:25:33;30.30;;;18.08;;
48524;SDS011;34316;51.514;-0.178;2023-02-15T12:27:37;31.52;;;18.98;;
48524;SDS011;34316;51.514;-0.178;2023-02-15T12:29:55;31.60;;;19.65;;
48524;SDS011;34316;51.514;-0.178;2023-02-15T12:31:58;28.95;;;18.92;;
48524;SDS011;34316;51.514;-0.178;2023-02-15T12:34:00;30.52;;;19.42;;
48524;SDS011;34316;51.514;-0.178;2023-02-15T12:36:11;29.08;;;18.75;;
48524;SDS011;34316;51.514;-0.178;2023-02-15T12:40:20;34.67;;;19.73;;
48524;SDS011;34316;51.514;-0.178;2023-02-15T12:42:24;29.02;;;18.70;;
48524;SDS011;34316;51.514;-0.178;2023-02-15T12:44:27;30.33;;;19.05;;
48524;SDS011;34316;51.514;-0.178;2023-02-15T12:46:30;32.65;;;20.42;;
48524;SDS011;34316;51.514;-0.178;2023-02-15T12:48:38;32.38;;;18.90;;
48524;SDS011;34316;51.514;-0.178;2023-02-15T12:50:45;32.08;;;19.55;;
48524;SDS011;34316;51.514;-0.178;2023-02-15T12:52:48;33.08;;;19.13;;
48524;SDS011;34316;51.514;-0.178;2023-02-15T12:54:51;32.47;;;19.80;;
48524;SDS011;34316;51.514;-0.178;2023-02-15T12:56:53;31.95;;;20.45;;
48524;SDS011;34316;51.514;-0.178;2023-02-15T12:59:04;28.98;;;20.30;;
48524;SDS011;34316;51.514;-0.178;2023-02-15T13:01:10;30.65;;;19.83;;
48524;SDS011;34316;51.514;-0.178;2023-02-15T13:03:16;28.65;;;19.02;;
48524;SDS011;34316;51.514;-0.178;2023-02-15T13:05:54;35.03;;;20.38;;
48524;SDS011;34316;51.514;-0.178;2023-02-15T13:07:50;28.95;;;17.67;;
48524;SDS011;34316;51.514;-0.178;2023-02-15T13:09:55;33.70;;;19.58;;
48524;SDS011;34316;51.514;-0.178;2023-02-15T13:18:32;27.55;;;19.13;;
48524;SDS011;34316;51.514;-0.178;2023-02-15T13:20:36;32.55;;;18.55;;
48524;SDS011;34316;51.514;-0.178;2023-02-15T13:22:40;31.15;;;17.58;;
48524;SDS011;34316;51.514;-0.178;2023-02-15T13:24:48;29.35;;;19.13;;
48524;SDS011;34316;51.514;-0.178;2023-02-15T13:26:52;28.42;;;17.50;;
48524;SDS011;34316;51.514;-0.178;2023-02-15T13:29:21;28.80;;;18.20;;
48524;SDS011;34316;51.514;-0.178;2023-02-15T13:31:28;31.30;;;18.80;;
48524;SDS011;34316;51.514;-0.178;2023-02-15T13:33:34;28.95;;;16.92;;
48524;SDS011;34316;51.514;-0.178;2023-02-15T13:35:42;30.88;;;19.15;;
48524;SDS011;34316;51.514;-0.178;2023-02-15T13:38:01;28.75;;;18.02;;
48524;SDS011;34316;51.514;-0.178;2023-02-15T13:40:12;31.73;;;17.42;;
48524;SDS011;34316;51.514;-0.178;2023-02-15T13:46:59;29.92;;;18.27;;
48524;SDS011;34316;51.514;-0.178;2023-02-15T13:49:16;27.95;;;17.75;;
48524;SDS011;34316;51.514;-0.178;2023-02-15T13:53:43;29.27;;;18.40;;
48524;SDS011;34316;51.514;-0.178;2023-02-15T14:18:04;38.03;;;21.52;;
48524;SDS011;34316;51.514;-0.178;2023-02-15T14:19:50;34.22;;;20.17;;
48524;SDS011;34316;51.514;-0.178;2023-02-15T14:24:21;31.33;;;19.25;;